sensor_id;sensor_type;location;lat;lon;timestamp;P1;durP1;ratioP1;P2;durP2;ratioP2
77586;SDS011;66744;49.716;17.158;2023-05-07T00:02:31;21.55;;;16.05;;
77586;SDS011;66744;49.716;17.158;2023-05-07T00:05:33;24.48;;;16.48;;
77586;SDS011;66744;49.716;17.158;2023-05-07T00:08:34;22.58;;;16.27;;
77586;SDS011;66744;49.716;17.158;2023-05-07T00:11:35;22.40;;;16.42;;
77586;SDS011;66744;49.716;17.158;2023-05-07T00:14:37;22.30;;;16.10;;
77586;SDS011;66744;49.716;17.158;2023-05-07T00:17:38;26.52;;;17.83;;
77586;SDS011;66744;49.716;17.158;2023-05-07T00:20:39;24.92;;;17.73;;
77586;SDS011;66744;49.716;17.158;2023-05-07T00:23:40;21.60;;;14.98;;
77586;SDS011;66744;49.716;17.158;2023-05-07T00:26:42;24.85;;;16.00;;
77586;SDS011;66744;49.716;17.158;2023-05-07T00:29:43;25.65;;;17.13;;
77586;SDS011;66744;49.716;17.158;2023-05-07T00:32:44;19.65;;;15.25;;
77586;SDS011;66744;49.716;17.158;2023-05-07T00:35:49;22.48;;;15.60;;
77586;SDS011;66744;49.716;17.158;2023-05-07T00:38:51;22.52;;;16.75;;
77586;SDS011;66744;49.716;17.158;2023-05-07T00:41:52;23.83;;;18.23;;
77586;SDS011;66744;49.716;17.158;2023-05-07T00:44:53;19.90;;;14.32;;
77586;SDS011;66744;49.716;17.158;2023-05-07T00:47:56;19.75;;;14.82;;
77586;SDS011;66744;49.716;17.158;2023-05-07T00:50:59;20.83;;;15.63;;
77586;SDS011;66744;49.716;17.158;2023-05-07T00:54:00;20.23;;;13.55;;
77586;SDS011;66744;49.716;17.158;2023-05-07T00:57:03;24.48;;;15.93;;
77586;SDS011;66744;49.716;17.158;2023-05-07T01:00:05;22.63;;;16.35;;
77586;SDS011;66744;49.716;17.158;2023-05-07T01:03:08;21.58;;;14.65;;
77586;SDS011;66744;49.716;17.158;2023-05-07T01:06:09;22.77;;;16.75;;
77586;SDS011;66744;49.716;17.158;2023-05-07T01:09:13;24.17;;;15.98;;
77586;SDS011;66744;49.716;17.158;2023-05-07T01:12:15;21.17;;;14.27;;
77586;SDS011;66744;49.716;17.158;2023-05-07T01:15:17;24.23;;;16.88;;
77586;SDS011;66744;49.716;17.158;2023-05-07T01:18:18;23.00;;;16.77;;
77586;SDS011;66744;49.716;17.158;2023-05-07T01:21:20;30.00;;;15.68;;
77586;SDS011;66744;49.716;17.158;2023-05-07T01:24:31;21.10;;;15.45;;
77586;SDS011;66744;49.716;17.158;2023-05-07T01:27:34;22.30;;;15.60;;
77586;SDS011;66744;49.716;17.158;2023-05-07T01:30:37;20.70;;;14.32;;
77586;SDS011;66744;49.716;17.158;2023-05-07T01:33:51;21.67;;;15.43;;
77586;SDS011;66744;49.716;17.158;2023-05-07T01:36:54;20.80;;;15.00;;
77586;SDS011;66744;49.716;17.158;2023-05-07T01:39:56;21.83;;;15.43;;
77586;SDS011;66744;49.716;17.158;2023-05-07T01:42:58;22.80;;;15.80;;
77586;SDS011;66744;49.716;17.158;2023-05-07T01:45:59;20.08;;;14.70;;
77586;SDS011;66744;49.716;17.158;2023-05-07T01:49:02;24.45;;;15.52;;
77586;SDS011;66744;49.716;17.158;2023-05-07T01:52:03;22.48;;;14.85;;
77586;SDS011;66744;49.716;17.158;2023-05-07T01:55:05;21.58;;;13.38;;
77586;SDS011;66744;49.716;17.158;2023-05-07T01:58:07;19.90;;;13.75;;
77586;SDS011;66744;49.716;17.158;2023-05-07T02:01:08;20.98;;;14.35;;
77586;SDS011;66744;49.716;17.158;2023-05-07T02:04:10;22.25;;;14.48;;
77586;SDS011;66744;49.716;17.158;2023-05-07T02:07:11;20.70;;;14.50;;
77586;SDS011;66744;49.716;17.158;2023-05-07T02:10:13;21.52;;;14.50;;
77586;SDS011;66744;49.716;17.158;2023-05-07T02:13:14;22.27;;;15.23;;
77586;SDS011;66744;49.716;17.158;2023-05-07T02:16:15;21.48;;;15.73;;
77586;SDS011;66744;49.716;17.158;2023-05-07T02:19:16;24.13;;;15.32;;
77586;SDS011;66744;49.716;17.158;2023-05-07T02:22:18;21.30;;;14.90;;
77586;SDS011;66744;49.716;17.158;2023-05-07T02:25:20;20.00;;;14.00;;
77586;SDS011;66744;49.716;17.158;2023-05-07T02:28:21;20.40;;;14.25;;
77586;SDS011;66744;49.716;17.158;2023-05-07T02:31:31;19.70;;;13.63;;
77586;SDS011;66744;49.716;17.158;2023-05-07T02:34:34;20.13;;;13.80;;
77586;SDS011;66744;49.716;17.158;2023-05-07T02:37:36;20.40;;;14.60;;
77586;SDS011;66744;49.716;17.158;2023-05-07T02:40:37;20.75;;;15.30;;
77586;SDS011;66744;49.716;17.158;2023-05-07T02:43:41;21.02;;;14.52;;
77586;SDS011;66744;49.716;17.158;2023-05-07T02:46:42;20.20;;;14.88;;
77586;SDS011;66744;49.716;17.158;2023-05-07T02:49:46;19.90;;;14.85;;
77586;SDS011;66744;49.716;17.158;2023-05-07T02:52:48;19.75;;;14.20;;
77586;SDS011;66744;49.716;17.158;2023-05-07T02:55:49;21.63;;;14.57;;
77586;SDS011;66744;49.716;17.158;2023-05-07T02:58:50;19.92;;;13.55;;
77586;SDS011;66744;49.716;17.158;2023-05-07T03:01:53;22.65;;;14.55;;
77586;SDS011;66744;49.716;17.158;2023-05-07T03:04:56;19.95;;;13.35;;
77586;SDS011;66744;49.716;17.158;2023-05-07T03:07:57;21.13;;;15.07;;
77586;SDS011;66744;49.716;17.158;2023-05-07T03:10:58;18.65;;;14.52;;
77586;SDS011;66744;49.716;17.158;2023-05-07T03:14:00;19.33;;;13.93;;
77586;SDS011;66744;49.716;17.158;2023-05-07T03:17:02;17.42;;;12.60;;
77586;SDS011;66744;49.716;17.158;2023-05-07T03:20:04;19.00;;;12.52;;
77586;SDS011;66744;49.716;17.158;2023-05-07T03:23:06;17.80;;;12.43;;
77586;SDS011;66744;49.716;17.158;2023-05-07T03:26:07;17.02;;;12.48;;
77586;SDS011;66744;49.716;17.158;2023-05-07T03:29:09;22.13;;;13.48;;
77586;SDS011;66744;49.716;17.158;2023-05-07T03:32:10;18.48;;;12.63;;
77586;SDS011;66744;49.716;17.158;2023-05-07T03:35:12;19.33;;;14.35;;
77586;SDS011;66744;49.716;17.158;2023-05-07T03:38:14;18.67;;;12.95;;
77586;SDS011;66744;49.716;17.158;2023-05-07T03:41:16;20.05;;;12.55;;
77586;SDS011;66744;49.716;17.158;2023-05-07T03:44:18;19.30;;;12.63;;
77586;SDS011;66744;49.716;17.158;2023-05-07T03:47:20;21.75;;;14.15;;
77586;SDS011;66744;49.716;17.158;2023-05-07T03:50:22;16.85;;;11.63;;
77586;SDS011;66744;49.716;17.158;2023-05-07T03:53:23;16.40;;;11.77;;
77586;SDS011;66744;49.716;17.158;2023-05-07T03:56:25;17.85;;;12.35;;
77586;SDS011;66744;49.716;17.158;2023-05-07T03:59:29;16.25;;;11.02;;
77586;SDS011;66744;49.716;17.158;2023-05-07T04:02:31;17.27;;;11.30;;
77586;SDS011;66744;49.716;17.158;2023-05-07T04:05:34;20.08;;;12.48;;
77586;SDS011;66744;49.716;17.158;2023-05-07T04:08:37;17.35;;;11.75;;
77586;SDS011;66744;49.716;17.158;2023-05-07T04:11:40;16.58;;;12.05;;
77586;SDS011;66744;49.716;17.158;2023-05-07T04:14:44;17.67;;;10.68;;
77586;SDS011;66744;49.716;17.158;2023-05-07T04:17:46;16.67;;;11.75;;
77586;SDS011;66744;49.716;17.158;2023-05-07T04:20:49;20.17;;;12.18;;
77586;SDS011;66744;49.716;17.158;2023-05-07T04:23:50;17.42;;;10.88;;
77586;SDS011;66744;49.716;17.158;2023-05-07T04:26:52;15.95;;;11.23;;
77586;SDS011;66744;49.716;17.158;2023-05-07T04:29:55;18.73;;;11.32;;
77586;SDS011;66744;49.716;17.158;2023-05-07T04:33:00;15.18;;;11.40;;
77586;SDS011;66744;49.716;17.158;2023-05-07T04:36:04;16.60;;;10.90;;
77586;SDS011;66744;49.716;17.158;2023-05-07T04:39:09;13.60;;;10.07;;
77586;SDS011;66744;49.716;17.158;2023-05-07T04:42:15;15.50;;;11.25;;
77586;SDS011;66744;49.716;17.158;2023-05-07T04:45:17;16.73;;;11.77;;
77586;SDS011;66744;49.716;17.158;2023-05-07T04:48:21;17.05;;;10.55;;
77586;SDS011;66744;49.716;17.158;2023-05-07T04:51:23;15.90;;;10.98;;
77586;SDS011;66744;49.716;17.158;2023-05-07T04:54:25;14.73;;;9.90;;
77586;SDS011;66744;49.716;17.158;2023-05-07T04:57:27;14.00;;;9.85;;
77586;SDS011;66744;49.716;17.158;2023-05-07T05:00:28;13.02;;;9.70;;
77586;SDS011;66744;49.716;17.158;2023-05-07T05:03:31;13.00;;;9.70;;
77586;SDS011;66744;49.716;17.158;2023-05-07T05:06:33;11.50;;;8.98;;
77586;SDS011;66744;49.716;17.158;2023-05-07T05:09:37;14.15;;;9.63;;
77586;SDS011;66744;49.716;17.158;2023-05-07T05:12:38;12.68;;;8.93;;
77586;SDS011;66744;49.716;17.158;2023-05-07T05:15:40;11.35;;;8.45;;
77586;SDS011;66744;49.716;17.158;2023-05-07T05:18:42;11.10;;;8.15;;
77586;SDS011;66744;49.716;17.158;2023-05-07T05:21:47;10.02;;;8.40;;
77586;SDS011;66744;49.716;17.158;2023-05-07T05:24:48;10.52;;;7.68;;
77586;SDS011;66744;49.716;17.158;2023-05-07T05:27:50;12.60;;;8.90;;
77586;SDS011;66744;49.716;17.158;2023-05-07T05:30:51;12.07;;;9.05;;
77586;SDS011;66744;49.716;17.158;2023-05-07T05:33:53;11.48;;;8.18;;
77586;SDS011;66744;49.716;17.158;2023-05-07T05:36:54;10.45;;;7.88;;
77586;SDS011;66744;49.716;17.158;2023-05-07T05:39:56;10.80;;;7.43;;
77586;SDS011;66744;49.716;17.158;2023-05-07T05:42:59;9.52;;;7.65;;
77586;SDS011;66744;49.716;17.158;2023-05-07T05:46:01;12.43;;;8.10;;
77586;SDS011;66744;49.716;17.158;2023-05-07T05:49:03;8.82;;;7.10;;
77586;SDS011;66744;49.716;17.158;2023-05-07T05:52:06;7.68;;;6.25;;
77586;SDS011;66744;49.716;17.158;2023-05-07T05:55:07;7.45;;;6.15;;
77586;SDS011;66744;49.716;17.158;2023-05-07T05:58:11;6.50;;;5.28;;
77586;SDS011;66744;49.716;17.158;2023-05-07T06:01:17;4.85;;;3.45;;
77586;SDS011;66744;49.716;17.158;2023-05-07T06:04:19;3.00;;;2.55;;
77586;SDS011;66744;49.716;17.158;2023-05-07T06:07:21;3.30;;;2.65;;
77586;SDS011;66744;49.716;17.158;2023-05-07T06:10:23;5.65;;;3.15;;
77586;SDS011;66744;49.716;17.158;2023-05-07T06:13:25;4.88;;;3.17;;
77586;SDS011;66744;49.716;17.158;2023-05-07T06:16:27;4.93;;;3.45;;
77586;SDS011;66744;49.716;17.158;2023-05-07T06:19:28;4.78;;;3.50;;
77586;SDS011;66744;49.716;17.158;2023-05-07T06:22:31;3.53;;;2.63;;
77586;SDS011;66744;49.716;17.158;2023-05-07T06:25:33;4.63;;;2.92;;
77586;SDS011;66744;49.716;17.158;2023-05-07T06:28:35;4.35;;;2.72;;
77586;SDS011;66744;49.716;17.158;2023-05-07T06:31:38;3.55;;;2.90;;
77586;SDS011;66744;49.716;17.158;2023-05-07T06:34:42;3.75;;;2.60;;
77586;SDS011;66744;49.716;17.158;2023-05-07T06:37:44;3.33;;;2.30;;
77586;SDS011;66744;49.716;17.158;2023-05-07T06:40:51;3.33;;;2.58;;
77586;SDS011;66744;49.716;17.158;2023-05-07T06:43:57;2.88;;;2.35;;
77586;SDS011;66744;49.716;17.158;2023-05-07T06:47:10;2.78;;;2.05;;
77586;SDS011;66744;49.716;17.158;2023-05-07T06:50:14;3.75;;;2.35;;
77586;SDS011;66744;49.716;17.158;2023-05-07T06:53:18;2.60;;;2.10;;
77586;SDS011;66744;49.716;17.158;2023-05-07T06:56:20;2.33;;;1.92;;
77586;SDS011;66744;49.716;17.158;2023-05-07T06:59:23;2.35;;;1.80;;
77586;SDS011;66744;49.716;17.158;2023-05-07T07:02:25;2.90;;;2.00;;
77586;SDS011;66744;49.716;17.158;2023-05-07T07:05:26;7.80;;;2.38;;
77586;SDS011;66744;49.716;17.158;2023-05-07T07:08:28;2.97;;;1.83;;
77586;SDS011;66744;49.716;17.158;2023-05-07T07:11:30;2.47;;;2.10;;
77586;SDS011;66744;49.716;17.158;2023-05-07T07:14:32;2.88;;;2.13;;
77586;SDS011;66744;49.716;17.158;2023-05-07T07:17:39;2.63;;;2.10;;
77586;SDS011;66744;49.716;17.158;2023-05-07T07:20:40;2.97;;;2.22;;
77586;SDS011;66744;49.716;17.158;2023-05-07T07:23:43;3.25;;;2.38;;
77586;SDS011;66744;49.716;17.158;2023-05-07T07:26:44;2.85;;;2.08;;
77586;SDS011;66744;49.716;17.158;2023-05-07T07:29:50;3.17;;;2.03;;
77586;SDS011;66744;49.716;17.158;2023-05-07T07:32:53;2.58;;;2.03;;
77586;SDS011;66744;49.716;17.158;2023-05-07T07:35:59;3.00;;;2.67;;
77586;SDS011;66744;49.716;17.158;2023-05-07T07:39:00;3.55;;;2.53;;
77586;SDS011;66744;49.716;17.158;2023-05-07T07:42:03;3.65;;;2.60;;
77586;SDS011;66744;49.716;17.158;2023-05-07T07:45:06;2.97;;;2.63;;
77586;SDS011;66744;49.716;17.158;2023-05-07T07:48:11;3.67;;;2.97;;
77586;SDS011;66744;49.716;17.158;2023-05-07T07:51:18;3.55;;;2.92;;
77586;SDS011;66744;49.716;17.158;2023-05-07T07:54:22;3.83;;;3.25;;
77586;SDS011;66744;49.716;17.158;2023-05-07T07:57:24;3.92;;;3.50;;
77586;SDS011;66744;49.716;17.158;2023-05-07T08:00:27;4.55;;;3.10;;
77586;SDS011;66744;49.716;17.158;2023-05-07T08:03:31;4.70;;;3.63;;
77586;SDS011;66744;49.716;17.158;2023-05-07T08:06:34;4.65;;;3.83;;
77586;SDS011;66744;49.716;17.158;2023-05-07T08:09:39;5.63;;;3.60;;
77586;SDS011;66744;49.716;17.158;2023-05-07T08:12:42;4.72;;;3.97;;
77586;SDS011;66744;49.716;17.158;2023-05-07T08:15:44;6.03;;;4.15;;
77586;SDS011;66744;49.716;17.158;2023-05-07T08:18:46;4.03;;;3.13;;
77586;SDS011;66744;49.716;17.158;2023-05-07T08:21:48;5.07;;;3.78;;
77586;SDS011;66744;49.716;17.158;2023-05-07T08:24:51;6.53;;;3.90;;
77586;SDS011;66744;49.716;17.158;2023-05-07T08:27:55;5.20;;;3.40;;
77586;SDS011;66744;49.716;17.158;2023-05-07T08:30:56;4.57;;;3.65;;
77586;SDS011;66744;49.716;17.158;2023-05-07T08:34:01;6.03;;;3.72;;
77586;SDS011;66744;49.716;17.158;2023-05-07T08:37:03;3.55;;;3.17;;
77586;SDS011;66744;49.716;17.158;2023-05-07T08:40:06;3.33;;;2.92;;
77586;SDS011;66744;49.716;17.158;2023-05-07T08:43:12;3.50;;;3.00;;
77586;SDS011;66744;49.716;17.158;2023-05-07T08:46:19;4.78;;;2.72;;
77586;SDS011;66744;49.716;17.158;2023-05-07T08:49:23;3.30;;;2.20;;
77586;SDS011;66744;49.716;17.158;2023-05-07T08:52:26;3.10;;;2.15;;
77586;SDS011;66744;49.716;17.158;2023-05-07T08:55:29;2.83;;;2.33;;
77586;SDS011;66744;49.716;17.158;2023-05-07T08:58:31;2.33;;;2.03;;
77586;SDS011;66744;49.716;17.158;2023-05-07T09:01:33;3.85;;;1.90;;
77586;SDS011;66744;49.716;17.158;2023-05-07T09:04:37;2.60;;;1.60;;
77586;SDS011;66744;49.716;17.158;2023-05-07T09:07:42;3.70;;;2.13;;
77586;SDS011;66744;49.716;17.158;2023-05-07T09:10:45;2.03;;;1.85;;
77586;SDS011;66744;49.716;17.158;2023-05-07T09:13:54;1.80;;;1.50;;
77586;SDS011;66744;49.716;17.158;2023-05-07T09:17:01;2.83;;;1.90;;
77586;SDS011;66744;49.716;17.158;2023-05-07T09:20:03;2.30;;;1.52;;
77586;SDS011;66744;49.716;17.158;2023-05-07T09:23:08;2.83;;;2.28;;
77586;SDS011;66744;49.716;17.158;2023-05-07T09:26:10;1.88;;;1.55;;
77586;SDS011;66744;49.716;17.158;2023-05-07T09:29:16;1.95;;;1.35;;
77586;SDS011;66744;49.716;17.158;2023-05-07T09:32:18;3.00;;;1.75;;
77586;SDS011;66744;49.716;17.158;2023-05-07T09:35:20;1.60;;;1.40;;
77586;SDS011;66744;49.716;17.158;2023-05-07T09:38:34;2.58;;;2.03;;
77586;SDS011;66744;49.716;17.158;2023-05-07T09:41:45;2.67;;;2.22;;
77586;SDS011;66744;49.716;17.158;2023-05-07T09:45:00;2.40;;;1.77;;
77586;SDS011;66744;49.716;17.158;2023-05-07T09:48:20;2.38;;;1.90;;
77586;SDS011;66744;49.716;17.158;2023-05-07T09:54:50;2.58;;;2.13;;
77586;SDS011;66744;49.716;17.158;2023-05-07T09:57:58;2.55;;;2.22;;
77586;SDS011;66744;49.716;17.158;2023-05-07T10:01:04;4.78;;;2.88;;
77586;SDS011;66744;49.716;17.158;2023-05-07T10:04:06;2.95;;;2.35;;
77586;SDS011;66744;49.716;17.158;2023-05-07T10:07:13;2.95;;;2.30;;
77586;SDS011;66744;49.716;17.158;2023-05-07T10:13:53;6.38;;;4.38;;
77586;SDS011;66744;49.716;17.158;2023-05-07T10:17:02;4.05;;;3.53;;
77586;SDS011;66744;49.716;17.158;2023-05-07T10:20:05;4.47;;;3.78;;
77586;SDS011;66744;49.716;17.158;2023-05-07T10:23:12;4.40;;;3.50;;
77586;SDS011;66744;49.716;17.158;2023-05-07T10:26:22;4.30;;;3.90;;
77586;SDS011;66744;49.716;17.158;2023-05-07T10:32:51;4.57;;;3.92;;
77586;SDS011;66744;49.716;17.158;2023-05-07T10:36:22;5.03;;;4.53;;
77586;SDS011;66744;49.716;17.158;2023-05-07T10:39:31;4.75;;;3.88;;
77586;SDS011;66744;49.716;17.158;2023-05-07T10:42:57;5.00;;;4.32;;
77586;SDS011;66744;49.716;17.158;2023-05-07T10:46:11;4.32;;;3.92;;
77586;SDS011;66744;49.716;17.158;2023-05-07T10:49:21;5.57;;;4.63;;
77586;SDS011;66744;49.716;17.158;2023-05-07T10:52:30;4.88;;;4.38;;
77586;SDS011;66744;49.716;17.158;2023-05-07T10:55:52;5.13;;;4.43;;
77586;SDS011;66744;49.716;17.158;2023-05-07T11:06:13;5.78;;;4.63;;
77586;SDS011;66744;49.716;17.158;2023-05-07T11:17:10;5.32;;;4.82;;
77586;SDS011;66744;49.716;17.158;2023-05-07T11:20:18;6.13;;;4.82;;
77586;SDS011;66744;49.716;17.158;2023-05-07T11:26:48;6.82;;;5.93;;
77586;SDS011;66744;49.716;17.158;2023-05-07T11:29:52;6.78;;;5.93;;
77586;SDS011;66744;49.716;17.158;2023-05-07T11:32:54;6.15;;;5.22;;
77586;SDS011;66744;49.716;17.158;2023-05-07T11:35:57;7.43;;;5.57;;
77586;SDS011;66744;49.716;17.158;2023-05-07T11:39:22;6.55;;;5.50;;
77586;SDS011;66744;49.716;17.158;2023-05-07T11:42:36;5.78;;;5.03;;
77586;SDS011;66744;49.716;17.158;2023-05-07T11:45:39;6.80;;;4.97;;
77586;SDS011;66744;49.716;17.158;2023-05-07T11:48:40;6.50;;;5.25;;
77586;SDS011;66744;49.716;17.158;2023-05-07T11:51:44;7.20;;;4.20;;
77586;SDS011;66744;49.716;17.158;2023-05-07T11:54:54;5.25;;;4.22;;
77586;SDS011;66744;49.716;17.158;2023-05-07T11:57:57;4.47;;;4.07;;
77586;SDS011;66744;49.716;17.158;2023-05-07T12:01:00;4.70;;;3.75;;
77586;SDS011;66744;49.716;17.158;2023-05-07T12:04:02;4.78;;;3.90;;
77586;SDS011;66744;49.716;17.158;2023-05-07T12:07:04;4.93;;;4.43;;
77586;SDS011;66744;49.716;17.158;2023-05-07T12:10:05;4.80;;;4.30;;
77586;SDS011;66744;49.716;17.158;2023-05-07T12:13:14;5.15;;;4.40;;
77586;SDS011;66744;49.716;17.158;2023-05-07T12:16:22;6.68;;;4.82;;
77586;SDS011;66744;49.716;17.158;2023-05-07T12:19:24;8.93;;;7.45;;
77586;SDS011;66744;49.716;17.158;2023-05-07T12:22:26;6.28;;;4.28;;
77586;SDS011;66744;49.716;17.158;2023-05-07T12:25:35;5.90;;;4.63;;
77586;SDS011;66744;49.716;17.158;2023-05-07T12:28:37;6.35;;;5.75;;
77586;SDS011;66744;49.716;17.158;2023-05-07T12:31:42;7.05;;;5.75;;
77586;SDS011;66744;49.716;17.158;2023-05-07T12:34:46;6.72;;;5.07;;
77586;SDS011;66744;49.716;17.158;2023-05-07T12:37:57;6.35;;;4.97;;
77586;SDS011;66744;49.716;17.158;2023-05-07T12:41:00;6.55;;;4.55;;
77586;SDS011;66744;49.716;17.158;2023-05-07T12:44:03;6.78;;;5.28;;
77586;SDS011;66744;49.716;17.158;2023-05-07T12:47:05;13.25;;;5.47;;
77586;SDS011;66744;49.716;17.158;2023-05-07T12:50:07;7.70;;;4.55;;
77586;SDS011;66744;49.716;17.158;2023-05-07T12:53:09;5.95;;;4.55;;
77586;SDS011;66744;49.716;17.158;2023-05-07T12:56:12;9.13;;;4.55;;
77586;SDS011;66744;49.716;17.158;2023-05-07T12:59:16;16.35;;;11.25;;
77586;SDS011;66744;49.716;17.158;2023-05-07T13:02:17;9.88;;;6.55;;
77586;SDS011;66744;49.716;17.158;2023-05-07T13:05:19;21.40;;;15.18;;
77586;SDS011;66744;49.716;17.158;2023-05-07T13:08:24;5.18;;;4.68;;
77586;SDS011;66744;49.716;17.158;2023-05-07T13:11:27;4.93;;;4.45;;
77586;SDS011;66744;49.716;17.158;2023-05-07T13:14:28;12.27;;;11.07;;
77586;SDS011;66744;49.716;17.158;2023-05-07T13:17:29;8.02;;;6.30;;
77586;SDS011;66744;49.716;17.158;2023-05-07T13:20:31;11.68;;;5.85;;
77586;SDS011;66744;49.716;17.158;2023-05-07T13:23:33;5.00;;;4.50;;
77586;SDS011;66744;49.716;17.158;2023-05-07T13:26:34;4.18;;;3.03;;
77586;SDS011;66744;49.716;17.158;2023-05-07T13:29:36;4.78;;;3.88;;
77586;SDS011;66744;49.716;17.158;2023-05-07T13:32:37;8.80;;;4.97;;
77586;SDS011;66744;49.716;17.158;2023-05-07T13:35:38;11.13;;;4.68;;
77586;SDS011;66744;49.716;17.158;2023-05-07T13:38:39;9.52;;;4.43;;
77586;SDS011;66744;49.716;17.158;2023-05-07T13:41:41;5.13;;;4.63;;
77586;SDS011;66744;49.716;17.158;2023-05-07T13:44:42;6.80;;;6.18;;
77586;SDS011;66744;49.716;17.158;2023-05-07T13:47:44;9.70;;;6.78;;
77586;SDS011;66744;49.716;17.158;2023-05-07T13:50:47;6.20;;;4.72;;
77586;SDS011;66744;49.716;17.158;2023-05-07T13:53:48;7.55;;;5.22;;
77586;SDS011;66744;49.716;17.158;2023-05-07T13:56:49;5.32;;;4.40;;
77586;SDS011;66744;49.716;17.158;2023-05-07T14:02:10;5.60;;;4.30;;
77586;SDS011;66744;49.716;17.158;2023-05-07T14:05:20;4.13;;;3.72;;
77586;SDS011;66744;49.716;17.158;2023-05-07T14:08:25;12.18;;;3.80;;
77586;SDS011;66744;49.716;17.158;2023-05-07T14:11:27;6.05;;;3.58;;
77586;SDS011;66744;49.716;17.158;2023-05-07T14:14:28;3.75;;;2.90;;
77586;SDS011;66744;49.716;17.158;2023-05-07T14:17:30;5.28;;;3.80;;
77586;SDS011;66744;49.716;17.158;2023-05-07T14:20:31;2.97;;;2.67;;
77586;SDS011;66744;49.716;17.158;2023-05-07T14:23:33;3.40;;;2.50;;
77586;SDS011;66744;49.716;17.158;2023-05-07T14:26:37;3.90;;;2.90;;
77586;SDS011;66744;49.716;17.158;2023-05-07T14:29:38;6.40;;;3.92;;
77586;SDS011;66744;49.716;17.158;2023-05-07T14:32:39;3.35;;;2.50;;
77586;SDS011;66744;49.716;17.158;2023-05-07T14:35:41;3.55;;;2.70;;
77586;SDS011;66744;49.716;17.158;2023-05-07T14:38:42;6.50;;;4.43;;
77586;SDS011;66744;49.716;17.158;2023-05-07T14:41:44;7.40;;;4.53;;
77586;SDS011;66744;49.716;17.158;2023-05-07T14:44:45;6.18;;;4.45;;
77586;SDS011;66744;49.716;17.158;2023-05-07T14:47:48;7.13;;;5.43;;
77586;SDS011;66744;49.716;17.158;2023-05-07T14:50:50;9.52;;;8.60;;
77586;SDS011;66744;49.716;17.158;2023-05-07T14:53:51;16.60;;;11.85;;
77586;SDS011;66744;49.716;17.158;2023-05-07T14:56:53;8.55;;;6.53;;
77586;SDS011;66744;49.716;17.158;2023-05-07T14:59:54;6.63;;;5.75;;
77586;SDS011;66744;49.716;17.158;2023-05-07T15:02:56;7.45;;;6.20;;
77586;SDS011;66744;49.716;17.158;2023-05-07T15:06:07;8.27;;;6.40;;
77586;SDS011;66744;49.716;17.158;2023-05-07T15:09:08;6.22;;;4.97;;
77586;SDS011;66744;49.716;17.158;2023-05-07T15:12:10;7.82;;;4.75;;
77586;SDS011;66744;49.716;17.158;2023-05-07T15:15:12;5.95;;;5.35;;
77586;SDS011;66744;49.716;17.158;2023-05-07T15:18:19;5.35;;;4.78;;
77586;SDS011;66744;49.716;17.158;2023-05-07T15:21:28;4.95;;;4.47;;
77586;SDS011;66744;49.716;17.158;2023-05-07T15:24:40;5.88;;;4.65;;
77586;SDS011;66744;49.716;17.158;2023-05-07T15:27:44;8.18;;;5.75;;
77586;SDS011;66744;49.716;17.158;2023-05-07T15:30:46;8.13;;;5.85;;
77586;SDS011;66744;49.716;17.158;2023-05-07T15:33:48;6.68;;;4.13;;
77586;SDS011;66744;49.716;17.158;2023-05-07T15:36:49;5.95;;;4.20;;
77586;SDS011;66744;49.716;17.158;2023-05-07T15:39:52;5.07;;;4.55;;
77586;SDS011;66744;49.716;17.158;2023-05-07T15:42:55;10.40;;;7.70;;
77586;SDS011;66744;49.716;17.158;2023-05-07T15:45:57;8.35;;;6.53;;
77586;SDS011;66744;49.716;17.158;2023-05-07T15:49:01;8.13;;;6.82;;
77586;SDS011;66744;49.716;17.158;2023-05-07T15:52:04;10.00;;;7.57;;
77586;SDS011;66744;49.716;17.158;2023-05-07T15:55:06;8.50;;;6.95;;
77586;SDS011;66744;49.716;17.158;2023-05-07T15:58:09;6.55;;;5.15;;
77586;SDS011;66744;49.716;17.158;2023-05-07T16:01:10;5.45;;;4.15;;
77586;SDS011;66744;49.716;17.158;2023-05-07T16:04:12;5.07;;;4.60;;
77586;SDS011;66744;49.716;17.158;2023-05-07T16:07:13;6.70;;;5.35;;
77586;SDS011;66744;49.716;17.158;2023-05-07T16:10:14;6.38;;;5.78;;
77586;SDS011;66744;49.716;17.158;2023-05-07T16:13:16;4.65;;;3.65;;
77586;SDS011;66744;49.716;17.158;2023-05-07T16:16:20;10.23;;;6.53;;
77586;SDS011;66744;49.716;17.158;2023-05-07T16:19:22;7.88;;;6.10;;
77586;SDS011;66744;49.716;17.158;2023-05-07T16:22:24;8.48;;;6.72;;
77586;SDS011;66744;49.716;17.158;2023-05-07T16:28:46;3.92;;;3.40;;
77586;SDS011;66744;49.716;17.158;2023-05-07T16:31:51;7.00;;;3.97;;
77586;SDS011;66744;49.716;17.158;2023-05-07T16:34:54;5.75;;;5.07;;
77586;SDS011;66744;49.716;17.158;2023-05-07T16:37:56;5.82;;;4.70;;
77586;SDS011;66744;49.716;17.158;2023-05-07T16:40:57;5.80;;;3.85;;
77586;SDS011;66744;49.716;17.158;2023-05-07T16:43:59;6.57;;;5.15;;
77586;SDS011;66744;49.716;17.158;2023-05-07T16:47:00;8.75;;;5.40;;
77586;SDS011;66744;49.716;17.158;2023-05-07T16:50:02;6.85;;;6.05;;
77586;SDS011;66744;49.716;17.158;2023-05-07T16:53:05;9.32;;;6.60;;
77586;SDS011;66744;49.716;17.158;2023-05-07T16:56:09;8.00;;;6.35;;
77586;SDS011;66744;49.716;17.158;2023-05-07T16:59:13;6.47;;;5.72;;
77586;SDS011;66744;49.716;17.158;2023-05-07T17:02:14;6.47;;;4.78;;
77586;SDS011;66744;49.716;17.158;2023-05-07T17:05:15;6.22;;;5.00;;
77586;SDS011;66744;49.716;17.158;2023-05-07T17:08:17;5.35;;;4.35;;
77586;SDS011;66744;49.716;17.158;2023-05-07T17:11:18;4.88;;;4.10;;
77586;SDS011;66744;49.716;17.158;2023-05-07T17:14:20;4.90;;;4.40;;
77586;SDS011;66744;49.716;17.158;2023-05-07T17:17:34;9.43;;;5.07;;
77586;SDS011;66744;49.716;17.158;2023-05-07T17:20:38;6.70;;;4.75;;
77586;SDS011;66744;49.716;17.158;2023-05-07T17:23:43;7.65;;;4.43;;
77586;SDS011;66744;49.716;17.158;2023-05-07T17:26:47;4.68;;;3.90;;
77586;SDS011;66744;49.716;17.158;2023-05-07T17:29:49;7.70;;;4.28;;
77586;SDS011;66744;49.716;17.158;2023-05-07T17:32:50;5.30;;;4.07;;
77586;SDS011;66744;49.716;17.158;2023-05-07T17:35:52;5.43;;;4.22;;
77586;SDS011;66744;49.716;17.158;2023-05-07T17:38:54;6.38;;;4.10;;
77586;SDS011;66744;49.716;17.158;2023-05-07T17:41:55;5.00;;;4.00;;
77586;SDS011;66744;49.716;17.158;2023-05-07T17:44:56;9.93;;;6.50;;
77586;SDS011;66744;49.716;17.158;2023-05-07T17:47:58;7.60;;;4.50;;
77586;SDS011;66744;49.716;17.158;2023-05-07T17:50:59;6.07;;;4.28;;
77586;SDS011;66744;49.716;17.158;2023-05-07T17:54:09;6.90;;;5.15;;
77586;SDS011;66744;49.716;17.158;2023-05-07T17:57:11;8.30;;;5.45;;
77586;SDS011;66744;49.716;17.158;2023-05-07T18:00:12;8.02;;;5.57;;
77586;SDS011;66744;49.716;17.158;2023-05-07T18:03:14;7.93;;;5.22;;
77586;SDS011;66744;49.716;17.158;2023-05-07T18:06:15;7.53;;;5.60;;
77586;SDS011;66744;49.716;17.158;2023-05-07T18:09:21;9.50;;;6.30;;
77586;SDS011;66744;49.716;17.158;2023-05-07T18:12:23;9.98;;;6.75;;
77586;SDS011;66744;49.716;17.158;2023-05-07T18:15:27;11.00;;;6.93;;
77586;SDS011;66744;49.716;17.158;2023-05-07T18:18:28;8.30;;;5.63;;
77586;SDS011;66744;49.716;17.158;2023-05-07T18:21:31;6.63;;;5.35;;
77586;SDS011;66744;49.716;17.158;2023-05-07T18:24:33;7.93;;;5.40;;
77586;SDS011;66744;49.716;17.158;2023-05-07T18:27:34;10.60;;;6.82;;
77586;SDS011;66744;49.716;17.158;2023-05-07T18:30:35;9.15;;;6.47;;
77586;SDS011;66744;49.716;17.158;2023-05-07T18:33:37;10.23;;;5.35;;